To NAV CANADA Home Page Login to a new session Search on AWWS site Feedback and Comments Disclaimer Vers la page française équivalente Tips FAQ What's new on the site To the Forecasts and Observations / NOTAM section To "File a Flight Plan" website Publications and other links Update of the User's profile FIC Telephone Numbers My Weather Data Folder Route Weather Data Regional Weather Data Local Weather Data To the Forecasts and Observations / NOTAM section
Request Generated 08/22/2017 at 03:24:10 UTC . Weather information available at that time is displayed.

METAR/TAF

FORT ST. JOHN/BC    

METAR CYXJ 220300Z 23012G17KT 15SM SCT070 SCT110 18/11 A3000 RMK
AC3AC1 SLP168 DENSITY ALT 3100FT=
METAR CYXJ 220200Z 22011G17KT 35SM FEW044 SCT090 19/12 A2999 RMK
CU1AC2 SLP166 DENSITY ALT 3300FT=
METAR CYXJ 220100Z 23015KT 35SM FEW060 BKN100 20/11 A2999 RMK CU2AC4
SLP166 DENSITY ALT 3300FT=

TAF CYXJ 220038Z 2201/2213 23010G20KT P6SM SCT060 BKN120
FM220900 23008KT P6SM FEW090 SCT150
RMK NXT FCST BY 220700Z=
Your time UTC time
Weather data provided by Environment Canada and NAV CANADA